sensor_id;sensor_type;location;lat;lon;timestamp;P1;durP1;ratioP1;P2;durP2;ratioP2
54157;SDS011;40065;49.894;10.358;2022-12-18T00:00:21;47.05;;;20.50;;
54157;SDS011;40065;49.894;10.358;2022-12-18T00:05:22;44.85;;;19.30;;
54157;SDS011;40065;49.894;10.358;2022-12-18T00:10:24;36.88;;;17.85;;
54157;SDS011;40065;49.894;10.358;2022-12-18T00:15:26;41.67;;;17.73;;
54157;SDS011;40065;49.894;10.358;2022-12-18T00:20:28;37.72;;;16.35;;
54157;SDS011;40065;49.894;10.358;2022-12-18T00:25:32;38.90;;;16.27;;
54157;SDS011;40065;49.894;10.358;2022-12-18T00:30:37;40.42;;;16.80;;
54157;SDS011;40065;49.894;10.358;2022-12-18T00:35:39;32.53;;;15.20;;
54157;SDS011;40065;49.894;10.358;2022-12-18T00:40:40;34.03;;;15.35;;
54157;SDS011;40065;49.894;10.358;2022-12-18T00:45:42;35.33;;;16.05;;
54157;SDS011;40065;49.894;10.358;2022-12-18T00:50:45;41.15;;;17.85;;
54157;SDS011;40065;49.894;10.358;2022-12-18T00:55:49;39.85;;;17.35;;
54157;SDS011;40065;49.894;10.358;2022-12-18T01:00:50;39.13;;;16.95;;
54157;SDS011;40065;49.894;10.358;2022-12-18T01:05:53;48.45;;;19.20;;
54157;SDS011;40065;49.894;10.358;2022-12-18T01:10:54;35.08;;;15.27;;
54157;SDS011;40065;49.894;10.358;2022-12-18T01:15:56;40.78;;;17.85;;
54157;SDS011;40065;49.894;10.358;2022-12-18T01:20:58;39.83;;;16.98;;
54157;SDS011;40065;49.894;10.358;2022-12-18T01:26:04;36.42;;;16.15;;
54157;SDS011;40065;49.894;10.358;2022-12-18T01:41:22;31.73;;;15.00;;
54157;SDS011;40065;49.894;10.358;2022-12-18T01:46:26;31.90;;;15.35;;
54157;SDS011;40065;49.894;10.358;2022-12-18T01:51:30;33.33;;;14.38;;
54157;SDS011;40065;49.894;10.358;2022-12-18T01:56:32;39.22;;;17.23;;
54157;SDS011;40065;49.894;10.358;2022-12-18T02:01:33;36.13;;;16.60;;
54157;SDS011;40065;49.894;10.358;2022-12-18T02:06:39;37.03;;;15.13;;
54157;SDS011;40065;49.894;10.358;2022-12-18T02:11:46;35.92;;;15.25;;
54157;SDS011;40065;49.894;10.358;2022-12-18T02:17:02;36.88;;;15.55;;
54157;SDS011;40065;49.894;10.358;2022-12-18T02:27:33;32.72;;;14.98;;
54157;SDS011;40065;49.894;10.358;2022-12-18T02:32:39;30.40;;;14.48;;
54157;SDS011;40065;49.894;10.358;2022-12-18T02:37:43;38.10;;;15.63;;
54157;SDS011;40065;49.894;10.358;2022-12-18T02:42:47;40.15;;;17.52;;
54157;SDS011;40065;49.894;10.358;2022-12-18T02:47:51;39.30;;;16.25;;
54157;SDS011;40065;49.894;10.358;2022-12-18T02:53:10;36.38;;;15.93;;
54157;SDS011;40065;49.894;10.358;2022-12-18T03:04:13;40.95;;;17.40;;
54157;SDS011;40065;49.894;10.358;2022-12-18T03:09:27;40.40;;;16.73;;
54157;SDS011;40065;49.894;10.358;2022-12-18T03:14:35;36.03;;;15.90;;
54157;SDS011;40065;49.894;10.358;2022-12-18T03:19:39;36.53;;;15.75;;
54157;SDS011;40065;49.894;10.358;2022-12-18T03:29:48;38.95;;;16.45;;
54157;SDS011;40065;49.894;10.358;2022-12-18T03:35:00;34.17;;;15.35;;
54157;SDS011;40065;49.894;10.358;2022-12-18T03:40:09;47.05;;;17.92;;
54157;SDS011;40065;49.894;10.358;2022-12-18T03:50:22;31.35;;;14.27;;
54157;SDS011;40065;49.894;10.358;2022-12-18T03:55:34;35.40;;;15.05;;
54157;SDS011;40065;49.894;10.358;2022-12-18T04:00:39;40.58;;;16.42;;
54157;SDS011;40065;49.894;10.358;2022-12-18T04:10:48;40.42;;;15.80;;
54157;SDS011;40065;49.894;10.358;2022-12-18T04:15:50;39.20;;;16.35;;
54157;SDS011;40065;49.894;10.358;2022-12-18T04:20:55;38.10;;;16.30;;
54157;SDS011;40065;49.894;10.358;2022-12-18T04:25:56;37.63;;;15.73;;
54157;SDS011;40065;49.894;10.358;2022-12-18T04:31:27;34.33;;;16.08;;
54157;SDS011;40065;49.894;10.358;2022-12-18T04:36:30;40.17;;;15.50;;
54157;SDS011;40065;49.894;10.358;2022-12-18T04:41:32;37.08;;;15.40;;
54157;SDS011;40065;49.894;10.358;2022-12-18T04:46:34;37.05;;;15.52;;
54157;SDS011;40065;49.894;10.358;2022-12-18T04:51:36;32.72;;;15.20;;
54157;SDS011;40065;49.894;10.358;2022-12-18T04:56:38;38.17;;;15.85;;
54157;SDS011;40065;49.894;10.358;2022-12-18T05:01:40;37.08;;;16.15;;
54157;SDS011;40065;49.894;10.358;2022-12-18T05:06:43;40.70;;;16.35;;
54157;SDS011;40065;49.894;10.358;2022-12-18T05:11:45;38.97;;;14.50;;
54157;SDS011;40065;49.894;10.358;2022-12-18T05:16:47;35.17;;;14.70;;
54157;SDS011;40065;49.894;10.358;2022-12-18T05:21:49;38.47;;;15.63;;
54157;SDS011;40065;49.894;10.358;2022-12-18T05:26:51;44.05;;;16.38;;
54157;SDS011;40065;49.894;10.358;2022-12-18T05:31:52;40.75;;;17.48;;
54157;SDS011;40065;49.894;10.358;2022-12-18T05:36:54;36.97;;;15.80;;
54157;SDS011;40065;49.894;10.358;2022-12-18T05:41:56;38.53;;;15.77;;
54157;SDS011;40065;49.894;10.358;2022-12-18T05:46:58;39.65;;;15.52;;
54157;SDS011;40065;49.894;10.358;2022-12-18T05:51:59;42.47;;;15.35;;
54157;SDS011;40065;49.894;10.358;2022-12-18T05:57:01;44.20;;;16.38;;
54157;SDS011;40065;49.894;10.358;2022-12-18T06:02:03;41.63;;;15.13;;
54157;SDS011;40065;49.894;10.358;2022-12-18T06:07:05;46.88;;;15.85;;
54157;SDS011;40065;49.894;10.358;2022-12-18T06:12:07;50.35;;;14.93;;
54157;SDS011;40065;49.894;10.358;2022-12-18T06:17:09;52.97;;;16.88;;
54157;SDS011;40065;49.894;10.358;2022-12-18T06:22:10;57.25;;;17.08;;
54157;SDS011;40065;49.894;10.358;2022-12-18T06:27:12;45.45;;;16.88;;
54157;SDS011;40065;49.894;10.358;2022-12-18T06:32:14;51.53;;;16.08;;
54157;SDS011;40065;49.894;10.358;2022-12-18T06:37:16;46.42;;;15.55;;
54157;SDS011;40065;49.894;10.358;2022-12-18T06:42:18;39.97;;;13.10;;
54157;SDS011;40065;49.894;10.358;2022-12-18T06:47:20;38.80;;;13.10;;
54157;SDS011;40065;49.894;10.358;2022-12-18T06:52:21;58.90;;;19.63;;
54157;SDS011;40065;49.894;10.358;2022-12-18T06:57:23;63.03;;;17.60;;
54157;SDS011;40065;49.894;10.358;2022-12-18T07:02:25;64.20;;;18.38;;
54157;SDS011;40065;49.894;10.358;2022-12-18T07:07:27;50.13;;;16.65;;
54157;SDS011;40065;49.894;10.358;2022-12-18T07:12:28;53.30;;;16.88;;
54157;SDS011;40065;49.894;10.358;2022-12-18T07:17:30;54.30;;;16.52;;
54157;SDS011;40065;49.894;10.358;2022-12-18T07:22:32;53.47;;;16.30;;
54157;SDS011;40065;49.894;10.358;2022-12-18T07:27:34;57.10;;;17.08;;
54157;SDS011;40065;49.894;10.358;2022-12-18T07:32:36;54.72;;;16.58;;
54157;SDS011;40065;49.894;10.358;2022-12-18T07:37:37;59.88;;;16.88;;
54157;SDS011;40065;49.894;10.358;2022-12-18T07:42:39;56.42;;;16.48;;
54157;SDS011;40065;49.894;10.358;2022-12-18T07:47:41;60.88;;;18.27;;
54157;SDS011;40065;49.894;10.358;2022-12-18T07:52:42;53.03;;;16.35;;
54157;SDS011;40065;49.894;10.358;2022-12-18T07:57:44;55.60;;;15.68;;
54157;SDS011;40065;49.894;10.358;2022-12-18T08:02:52;47.28;;;17.00;;
54157;SDS011;40065;49.894;10.358;2022-12-18T08:07:54;50.03;;;16.67;;
54157;SDS011;40065;49.894;10.358;2022-12-18T08:12:57;51.25;;;16.08;;
54157;SDS011;40065;49.894;10.358;2022-12-18T08:18:05;50.90;;;16.35;;
54157;SDS011;40065;49.894;10.358;2022-12-18T08:23:14;48.75;;;15.80;;
54157;SDS011;40065;49.894;10.358;2022-12-18T08:28:15;64.00;;;19.05;;
54157;SDS011;40065;49.894;10.358;2022-12-18T08:33:17;47.95;;;15.38;;
54157;SDS011;40065;49.894;10.358;2022-12-18T08:38:19;48.03;;;14.77;;
54157;SDS011;40065;49.894;10.358;2022-12-18T08:43:21;39.95;;;14.18;;
54157;SDS011;40065;49.894;10.358;2022-12-18T08:48:41;46.10;;;14.57;;
54157;SDS011;40065;49.894;10.358;2022-12-18T08:53:43;51.03;;;14.98;;
54157;SDS011;40065;49.894;10.358;2022-12-18T08:58:46;45.47;;;13.85;;
54157;SDS011;40065;49.894;10.358;2022-12-18T09:03:48;43.90;;;14.75;;
54157;SDS011;40065;49.894;10.358;2022-12-18T09:08:50;42.92;;;15.25;;
54157;SDS011;40065;49.894;10.358;2022-12-18T09:13:53;39.65;;;14.95;;
54157;SDS011;40065;49.894;10.358;2022-12-18T09:18:55;48.53;;;14.77;;
54157;SDS011;40065;49.894;10.358;2022-12-18T09:24:00;44.58;;;14.13;;
54157;SDS011;40065;49.894;10.358;2022-12-18T09:29:02;42.28;;;14.90;;
54157;SDS011;40065;49.894;10.358;2022-12-18T09:34:04;39.97;;;14.00;;
54157;SDS011;40065;49.894;10.358;2022-12-18T09:39:07;40.38;;;14.07;;
54157;SDS011;40065;49.894;10.358;2022-12-18T09:44:11;40.70;;;13.88;;
54157;SDS011;40065;49.894;10.358;2022-12-18T09:49:25;41.67;;;14.43;;
54157;SDS011;40065;49.894;10.358;2022-12-18T09:54:35;37.33;;;12.65;;
54157;SDS011;40065;49.894;10.358;2022-12-18T09:59:40;38.70;;;13.52;;
54157;SDS011;40065;49.894;10.358;2022-12-18T10:04:47;37.53;;;13.55;;
54157;SDS011;40065;49.894;10.358;2022-12-18T10:10:00;35.55;;;13.15;;
54157;SDS011;40065;49.894;10.358;2022-12-18T10:15:19;33.25;;;12.98;;
54157;SDS011;40065;49.894;10.358;2022-12-18T10:31:04;36.28;;;13.85;;
54157;SDS011;40065;49.894;10.358;2022-12-18T10:36:07;56.97;;;19.20;;
54157;SDS011;40065;49.894;10.358;2022-12-18T10:46:22;31.00;;;12.25;;
54157;SDS011;40065;49.894;10.358;2022-12-18T10:51:26;35.80;;;12.93;;
54157;SDS011;40065;49.894;10.358;2022-12-18T10:56:33;34.10;;;12.15;;
54157;SDS011;40065;49.894;10.358;2022-12-18T11:01:52;33.55;;;12.82;;
54157;SDS011;40065;49.894;10.358;2022-12-18T11:07:06;31.40;;;12.32;;
54157;SDS011;40065;49.894;10.358;2022-12-18T11:12:17;33.88;;;13.20;;
54157;SDS011;40065;49.894;10.358;2022-12-18T11:17:33;32.85;;;12.88;;
54157;SDS011;40065;49.894;10.358;2022-12-18T11:22:36;31.48;;;12.55;;
54157;SDS011;40065;49.894;10.358;2022-12-18T11:27:39;31.58;;;12.80;;
54157;SDS011;40065;49.894;10.358;2022-12-18T11:32:45;33.55;;;12.73;;
54157;SDS011;40065;49.894;10.358;2022-12-18T11:48:43;30.98;;;12.73;;
54157;SDS011;40065;49.894;10.358;2022-12-18T11:53:53;28.35;;;11.50;;
54157;SDS011;40065;49.894;10.358;2022-12-18T11:59:05;32.47;;;12.70;;
54157;SDS011;40065;49.894;10.358;2022-12-18T12:26:02;28.88;;;11.35;;
54157;SDS011;40065;49.894;10.358;2022-12-18T12:31:16;28.17;;;11.98;;
54157;SDS011;40065;49.894;10.358;2022-12-18T12:47:06;27.88;;;11.57;;
54157;SDS011;40065;49.894;10.358;2022-12-18T12:52:37;27.65;;;11.30;;
54157;SDS011;40065;49.894;10.358;2022-12-18T13:03:41;29.45;;;12.13;;
54157;SDS011;40065;49.894;10.358;2022-12-18T13:08:53;28.38;;;11.98;;
54157;SDS011;40065;49.894;10.358;2022-12-18T13:13:57;25.98;;;11.23;;
54157;SDS011;40065;49.894;10.358;2022-12-18T13:19:00;29.17;;;11.73;;
54157;SDS011;40065;49.894;10.358;2022-12-18T13:29:43;25.87;;;11.27;;
54157;SDS011;40065;49.894;10.358;2022-12-18T13:34:47;30.45;;;12.07;;
54157;SDS011;40065;49.894;10.358;2022-12-18T13:39:49;32.30;;;12.05;;
54157;SDS011;40065;49.894;10.358;2022-12-18T13:44:51;27.35;;;10.98;;
54157;SDS011;40065;49.894;10.358;2022-12-18T13:49:53;30.33;;;12.20;;
54157;SDS011;40065;49.894;10.358;2022-12-18T13:54:56;28.63;;;11.52;;
54157;SDS011;40065;49.894;10.358;2022-12-18T14:05:26;29.77;;;12.15;;
54157;SDS011;40065;49.894;10.358;2022-12-18T14:10:28;28.90;;;12.18;;
54157;SDS011;40065;49.894;10.358;2022-12-18T14:15:49;29.23;;;12.68;;
54157;SDS011;40065;49.894;10.358;2022-12-18T14:20:53;28.58;;;10.73;;
54157;SDS011;40065;49.894;10.358;2022-12-18T14:25:58;26.70;;;11.25;;
54157;SDS011;40065;49.894;10.358;2022-12-18T14:31:15;30.98;;;11.20;;
54157;SDS011;40065;49.894;10.358;2022-12-18T14:36:20;26.23;;;10.35;;
54157;SDS011;40065;49.894;10.358;2022-12-18T14:41:25;32.15;;;12.63;;
54157;SDS011;40065;49.894;10.358;2022-12-18T14:46:34;26.23;;;10.65;;
54157;SDS011;40065;49.894;10.358;2022-12-18T14:51:37;26.77;;;10.68;;
54157;SDS011;40065;49.894;10.358;2022-12-18T14:56:43;25.92;;;10.43;;
54157;SDS011;40065;49.894;10.358;2022-12-18T15:07:22;26.08;;;10.48;;
54157;SDS011;40065;49.894;10.358;2022-12-18T15:12:33;25.27;;;10.45;;
54157;SDS011;40065;49.894;10.358;2022-12-18T15:17:37;30.08;;;11.18;;
54157;SDS011;40065;49.894;10.358;2022-12-18T15:22:39;30.17;;;10.40;;
54157;SDS011;40065;49.894;10.358;2022-12-18T15:27:41;31.52;;;11.88;;
54157;SDS011;40065;49.894;10.358;2022-12-18T15:32:49;25.20;;;9.73;;
54157;SDS011;40065;49.894;10.358;2022-12-18T15:37:52;28.52;;;10.45;;
54157;SDS011;40065;49.894;10.358;2022-12-18T15:42:54;26.00;;;9.63;;
54157;SDS011;40065;49.894;10.358;2022-12-18T15:48:20;31.23;;;10.95;;
54157;SDS011;40065;49.894;10.358;2022-12-18T15:53:23;27.20;;;10.07;;
54157;SDS011;40065;49.894;10.358;2022-12-18T15:58:26;23.40;;;8.87;;
54157;SDS011;40065;49.894;10.358;2022-12-18T16:03:28;25.02;;;10.07;;
54157;SDS011;40065;49.894;10.358;2022-12-18T16:08:30;30.35;;;11.55;;
54157;SDS011;40065;49.894;10.358;2022-12-18T16:13:32;29.77;;;11.85;;
54157;SDS011;40065;49.894;10.358;2022-12-18T16:18:34;30.95;;;11.32;;
54157;SDS011;40065;49.894;10.358;2022-12-18T16:23:36;33.15;;;12.10;;
54157;SDS011;40065;49.894;10.358;2022-12-18T16:28:39;29.67;;;10.48;;
54157;SDS011;40065;49.894;10.358;2022-12-18T16:33:48;34.42;;;12.10;;
54157;SDS011;40065;49.894;10.358;2022-12-18T16:38:50;28.40;;;10.20;;
54157;SDS011;40065;49.894;10.358;2022-12-18T16:43:52;36.67;;;12.88;;
54157;SDS011;40065;49.894;10.358;2022-12-18T16:48:56;34.27;;;12.40;;
54157;SDS011;40065;49.894;10.358;2022-12-18T16:53:59;33.92;;;12.70;;
54157;SDS011;40065;49.894;10.358;2022-12-18T16:59:11;27.95;;;11.13;;
54157;SDS011;40065;49.894;10.358;2022-12-18T17:04:13;27.60;;;11.27;;
54157;SDS011;40065;49.894;10.358;2022-12-18T17:09:16;31.15;;;11.88;;
54157;SDS011;40065;49.894;10.358;2022-12-18T17:14:21;32.38;;;12.98;;
54157;SDS011;40065;49.894;10.358;2022-12-18T17:19:25;30.05;;;11.63;;
54157;SDS011;40065;49.894;10.358;2022-12-18T17:24:27;26.33;;;10.45;;
54157;SDS011;40065;49.894;10.358;2022-12-18T17:29:35;36.35;;;13.05;;
54157;SDS011;40065;49.894;10.358;2022-12-18T17:34:45;33.67;;;12.80;;
54157;SDS011;40065;49.894;10.358;2022-12-18T17:39:47;35.13;;;13.73;;
54157;SDS011;40065;49.894;10.358;2022-12-18T17:44:49;37.28;;;14.07;;
54157;SDS011;40065;49.894;10.358;2022-12-18T17:49:50;36.70;;;14.95;;
54157;SDS011;40065;49.894;10.358;2022-12-18T17:54:53;40.65;;;15.07;;
54157;SDS011;40065;49.894;10.358;2022-12-18T17:59:55;36.40;;;13.23;;
54157;SDS011;40065;49.894;10.358;2022-12-18T18:04:57;31.10;;;12.88;;
54157;SDS011;40065;49.894;10.358;2022-12-18T18:09:59;34.05;;;14.32;;
54157;SDS011;40065;49.894;10.358;2022-12-18T18:15:01;33.42;;;14.18;;
54157;SDS011;40065;49.894;10.358;2022-12-18T18:20:03;33.25;;;13.45;;
54157;SDS011;40065;49.894;10.358;2022-12-18T18:25:06;35.22;;;14.50;;
54157;SDS011;40065;49.894;10.358;2022-12-18T18:30:10;43.78;;;16.48;;
54157;SDS011;40065;49.894;10.358;2022-12-18T18:35:12;33.63;;;13.55;;
54157;SDS011;40065;49.894;10.358;2022-12-18T18:40:34;68.97;;;23.85;;
54157;SDS011;40065;49.894;10.358;2022-12-18T18:45:36;41.63;;;17.23;;
54157;SDS011;40065;49.894;10.358;2022-12-18T18:50:40;38.80;;;14.93;;
54157;SDS011;40065;49.894;10.358;2022-12-18T18:55:44;32.60;;;13.98;;
54157;SDS011;40065;49.894;10.358;2022-12-18T19:01:01;35.95;;;14.23;;
54157;SDS011;40065;49.894;10.358;2022-12-18T19:06:07;35.20;;;14.48;;
54157;SDS011;40065;49.894;10.358;2022-12-18T19:11:14;36.53;;;14.65;;
54157;SDS011;40065;49.894;10.358;2022-12-18T19:16:37;34.15;;;14.75;;
54157;SDS011;40065;49.894;10.358;2022-12-18T19:21:39;34.80;;;13.88;;
54157;SDS011;40065;49.894;10.358;2022-12-18T19:26:41;35.88;;;13.77;;
54157;SDS011;40065;49.894;10.358;2022-12-18T19:31:43;46.83;;;15.85;;
54157;SDS011;40065;49.894;10.358;2022-12-18T19:36:46;37.90;;;16.73;;
54157;SDS011;40065;49.894;10.358;2022-12-18T19:41:48;41.05;;;16.38;;
54157;SDS011;40065;49.894;10.358;2022-12-18T19:46:52;39.17;;;15.80;;
54157;SDS011;40065;49.894;10.358;2022-12-18T19:51:54;40.88;;;15.90;;
54157;SDS011;40065;49.894;10.358;2022-12-18T19:56:56;35.65;;;15.02;;
54157;SDS011;40065;49.894;10.358;2022-12-18T20:01:58;42.22;;;15.35;;
54157;SDS011;40065;49.894;10.358;2022-12-18T20:12:04;42.83;;;16.50;;
54157;SDS011;40065;49.894;10.358;2022-12-18T20:17:06;36.67;;;15.02;;
54157;SDS011;40065;49.894;10.358;2022-12-18T20:22:08;40.30;;;16.05;;
54157;SDS011;40065;49.894;10.358;2022-12-18T20:27:10;34.90;;;16.05;;
54157;SDS011;40065;49.894;10.358;2022-12-18T20:32:18;41.25;;;16.90;;
54157;SDS011;40065;49.894;10.358;2022-12-18T20:37:21;37.45;;;15.50;;
54157;SDS011;40065;49.894;10.358;2022-12-18T20:42:23;38.03;;;15.40;;
54157;SDS011;40065;49.894;10.358;2022-12-18T20:47:25;35.55;;;15.20;;
54157;SDS011;40065;49.894;10.358;2022-12-18T20:52:27;38.92;;;15.43;;
54157;SDS011;40065;49.894;10.358;2022-12-18T20:57:29;39.95;;;15.50;;
54157;SDS011;40065;49.894;10.358;2022-12-18T21:02:31;40.03;;;16.65;;
54157;SDS011;40065;49.894;10.358;2022-12-18T21:07:33;37.42;;;15.52;;
54157;SDS011;40065;49.894;10.358;2022-12-18T21:12:35;38.03;;;16.75;;
54157;SDS011;40065;49.894;10.358;2022-12-18T21:18:01;37.35;;;16.33;;
54157;SDS011;40065;49.894;10.358;2022-12-18T21:23:03;40.28;;;15.00;;
54157;SDS011;40065;49.894;10.358;2022-12-18T21:28:17;37.70;;;15.98;;
54157;SDS011;40065;49.894;10.358;2022-12-18T21:33:18;44.47;;;17.08;;
54157;SDS011;40065;49.894;10.358;2022-12-18T21:38:20;40.17;;;16.05;;
54157;SDS011;40065;49.894;10.358;2022-12-18T21:43:22;42.05;;;16.67;;
54157;SDS011;40065;49.894;10.358;2022-12-18T21:48:43;38.83;;;15.60;;
54157;SDS011;40065;49.894;10.358;2022-12-18T21:53:44;41.40;;;16.67;;
54157;SDS011;40065;49.894;10.358;2022-12-18T21:58:49;38.40;;;15.82;;
54157;SDS011;40065;49.894;10.358;2022-12-18T22:03:57;36.97;;;15.02;;
54157;SDS011;40065;49.894;10.358;2022-12-18T22:08:59;38.85;;;15.90;;
54157;SDS011;40065;49.894;10.358;2022-12-18T22:14:01;45.85;;;17.30;;
54157;SDS011;40065;49.894;10.358;2022-12-18T22:19:03;41.35;;;16.00;;
54157;SDS011;40065;49.894;10.358;2022-12-18T22:24:11;36.17;;;15.63;;
54157;SDS011;40065;49.894;10.358;2022-12-18T22:29:16;36.53;;;15.85;;
54157;SDS011;40065;49.894;10.358;2022-12-18T22:34:37;39.53;;;16.60;;
54157;SDS011;40065;49.894;10.358;2022-12-18T22:39:39;40.25;;;16.95;;
54157;SDS011;40065;49.894;10.358;2022-12-18T22:44:42;39.05;;;15.80;;
54157;SDS011;40065;49.894;10.358;2022-12-18T22:49:43;39.50;;;16.08;;
54157;SDS011;40065;49.894;10.358;2022-12-18T22:54:45;31.20;;;13.05;;
54157;SDS011;40065;49.894;10.358;2022-12-18T22:59:47;43.15;;;16.83;;
54157;SDS011;40065;49.894;10.358;2022-12-18T23:04:50;34.42;;;14.48;;
54157;SDS011;40065;49.894;10.358;2022-12-18T23:09:52;36.15;;;16.40;;
54157;SDS011;40065;49.894;10.358;2022-12-18T23:15:01;40.10;;;17.10;;
54157;SDS011;40065;49.894;10.358;2022-12-18T23:20:03;42.15;;;17.08;;
54157;SDS011;40065;49.894;10.358;2022-12-18T23:25:05;39.20;;;16.63;;
54157;SDS011;40065;49.894;10.358;2022-12-18T23:30:11;35.25;;;15.98;;
54157;SDS011;40065;49.894;10.358;2022-12-18T23:35:13;35.70;;;16.00;;
54157;SDS011;40065;49.894;10.358;2022-12-18T23:40:16;39.75;;;16.95;;
54157;SDS011;40065;49.894;10.358;2022-12-18T23:45:18;35.60;;;15.20;;
54157;SDS011;40065;49.894;10.358;2022-12-18T23:50:20;37.67;;;15.90;;
54157;SDS011;40065;49.894;10.358;2022-12-18T23:55:30;41.55;;;16.48;;
